Terminal Aerodrome Forecast
Issued by NWS

Home | Current Version | Previous Version | Text Only | Print | Product List | Glossary On
Versions: 1 2 3 4 5 6 7 8 9 10 11 12 13 14 15 16 17 18 19 20
000
FTUS44 KLZK 242300
TAFLIT
TAF
KLIT 242326Z 2500/2524 VRB05KT P6SM BKN040
     FM250200 VRB03KT P6SM SKC
     FM251500 14004KT P6SM SCT035=

USA.gov is the U.S. government's official web portal to all federal, state and local government web resources and services.